sensor_id;sensor_type;location;lat;lon;timestamp;P1;durP1;ratioP1;P2;durP2;ratioP2
71462;SDS011;59266;52.608;13.260;2022-10-16T00:01:20;7.95;;;2.58;;
71462;SDS011;59266;52.608;13.260;2022-10-16T00:03:48;5.75;;;2.42;;
71462;SDS011;59266;52.608;13.260;2022-10-16T00:06:17;5.72;;;2.40;;
71462;SDS011;59266;52.608;13.260;2022-10-16T00:08:45;5.68;;;2.10;;
71462;SDS011;59266;52.608;13.260;2022-10-16T00:11:14;5.90;;;2.50;;
71462;SDS011;59266;52.608;13.260;2022-10-16T00:13:43;6.20;;;2.28;;
71462;SDS011;59266;52.608;13.260;2022-10-16T00:16:11;5.63;;;2.00;;
71462;SDS011;59266;52.608;13.260;2022-10-16T00:18:39;5.38;;;2.10;;
71462;SDS011;59266;52.608;13.260;2022-10-16T00:21:07;4.72;;;2.10;;
71462;SDS011;59266;52.608;13.260;2022-10-16T00:23:35;5.65;;;2.00;;
71462;SDS011;59266;52.608;13.260;2022-10-16T00:26:03;5.25;;;2.10;;
71462;SDS011;59266;52.608;13.260;2022-10-16T00:28:34;4.90;;;1.95;;
71462;SDS011;59266;52.608;13.260;2022-10-16T00:31:06;5.25;;;2.05;;
71462;SDS011;59266;52.608;13.260;2022-10-16T00:33:35;5.22;;;2.10;;
71462;SDS011;59266;52.608;13.260;2022-10-16T00:36:03;5.95;;;2.17;;
71462;SDS011;59266;52.608;13.260;2022-10-16T00:38:32;5.38;;;2.00;;
71462;SDS011;59266;52.608;13.260;2022-10-16T00:40:59;4.75;;;2.08;;
71462;SDS011;59266;52.608;13.260;2022-10-16T00:46:02;4.57;;;2.08;;
71462;SDS011;59266;52.608;13.260;2022-10-16T00:48:31;6.32;;;2.38;;
71462;SDS011;59266;52.608;13.260;2022-10-16T00:50:58;5.43;;;2.38;;
71462;SDS011;59266;52.608;13.260;2022-10-16T00:53:25;5.97;;;2.15;;
71462;SDS011;59266;52.608;13.260;2022-10-16T00:55:53;7.15;;;2.10;;
71462;SDS011;59266;52.608;13.260;2022-10-16T00:58:20;4.90;;;2.20;;
71462;SDS011;59266;52.608;13.260;2022-10-16T01:00:47;5.63;;;2.22;;
71462;SDS011;59266;52.608;13.260;2022-10-16T01:03:33;8.93;;;2.38;;
71462;SDS011;59266;52.608;13.260;2022-10-16T01:06:15;6.45;;;2.25;;
71462;SDS011;59266;52.608;13.260;2022-10-16T01:11:33;5.55;;;2.40;;
71462;SDS011;59266;52.608;13.260;2022-10-16T01:14:06;6.88;;;2.50;;
71462;SDS011;59266;52.608;13.260;2022-10-16T01:16:53;5.88;;;2.22;;
71462;SDS011;59266;52.608;13.260;2022-10-16T01:19:32;5.00;;;2.15;;
71462;SDS011;59266;52.608;13.260;2022-10-16T01:22:10;4.85;;;2.00;;
71462;SDS011;59266;52.608;13.260;2022-10-16T01:24:38;6.15;;;1.83;;
71462;SDS011;59266;52.608;13.260;2022-10-16T01:34:59;5.43;;;1.88;;
71462;SDS011;59266;52.608;13.260;2022-10-16T01:37:38;6.45;;;2.13;;
71462;SDS011;59266;52.608;13.260;2022-10-16T01:40:11;6.65;;;2.00;;
71462;SDS011;59266;52.608;13.260;2022-10-16T01:42:44;5.80;;;1.88;;
71462;SDS011;59266;52.608;13.260;2022-10-16T01:45:14;6.13;;;2.00;;
71462;SDS011;59266;52.608;13.260;2022-10-16T01:47:45;6.22;;;2.47;;
71462;SDS011;59266;52.608;13.260;2022-10-16T01:50:14;5.30;;;2.15;;
71462;SDS011;59266;52.608;13.260;2022-10-16T01:52:45;5.85;;;2.00;;
71462;SDS011;59266;52.608;13.260;2022-10-16T01:55:17;4.40;;;1.90;;
71462;SDS011;59266;52.608;13.260;2022-10-16T01:57:48;5.32;;;2.10;;
71462;SDS011;59266;52.608;13.260;2022-10-16T02:00:18;5.60;;;1.98;;
71462;SDS011;59266;52.608;13.260;2022-10-16T02:02:47;5.45;;;1.60;;
71462;SDS011;59266;52.608;13.260;2022-10-16T02:07:46;4.50;;;1.92;;
71462;SDS011;59266;52.608;13.260;2022-10-16T02:10:14;4.75;;;2.03;;
71462;SDS011;59266;52.608;13.260;2022-10-16T02:12:42;4.63;;;1.83;;
71462;SDS011;59266;52.608;13.260;2022-10-16T02:15:13;4.38;;;1.80;;
71462;SDS011;59266;52.608;13.260;2022-10-16T02:17:40;5.60;;;2.20;;
71462;SDS011;59266;52.608;13.260;2022-10-16T02:20:07;6.20;;;1.90;;
71462;SDS011;59266;52.608;13.260;2022-10-16T02:22:44;7.00;;;2.05;;
71462;SDS011;59266;52.608;13.260;2022-10-16T02:25:15;6.63;;;2.00;;
71462;SDS011;59266;52.608;13.260;2022-10-16T02:30:53;5.82;;;2.00;;
71462;SDS011;59266;52.608;13.260;2022-10-16T02:33:26;5.47;;;2.00;;
71462;SDS011;59266;52.608;13.260;2022-10-16T02:35:55;4.65;;;1.70;;
71462;SDS011;59266;52.608;13.260;2022-10-16T02:38:22;4.85;;;2.00;;
71462;SDS011;59266;52.608;13.260;2022-10-16T02:40:51;5.82;;;1.85;;
71462;SDS011;59266;52.608;13.260;2022-10-16T02:43:18;6.35;;;1.92;;
71462;SDS011;59266;52.608;13.260;2022-10-16T02:45:45;5.57;;;2.15;;
71462;SDS011;59266;52.608;13.260;2022-10-16T02:48:12;3.97;;;1.70;;
71462;SDS011;59266;52.608;13.260;2022-10-16T02:50:38;6.50;;;2.03;;
71462;SDS011;59266;52.608;13.260;2022-10-16T02:53:05;3.95;;;1.75;;
71462;SDS011;59266;52.608;13.260;2022-10-16T02:55:31;5.72;;;2.00;;
71462;SDS011;59266;52.608;13.260;2022-10-16T02:57:59;4.95;;;1.83;;
71462;SDS011;59266;52.608;13.260;2022-10-16T03:00:26;5.05;;;2.05;;
71462;SDS011;59266;52.608;13.260;2022-10-16T03:02:54;5.25;;;1.90;;
71462;SDS011;59266;52.608;13.260;2022-10-16T03:05:20;4.30;;;1.92;;
71462;SDS011;59266;52.608;13.260;2022-10-16T03:07:51;6.25;;;2.00;;
71462;SDS011;59266;52.608;13.260;2022-10-16T03:10:18;4.53;;;1.85;;
71462;SDS011;59266;52.608;13.260;2022-10-16T03:12:45;5.63;;;1.70;;
71462;SDS011;59266;52.608;13.260;2022-10-16T03:15:12;5.97;;;2.20;;
71462;SDS011;59266;52.608;13.260;2022-10-16T03:17:38;6.88;;;2.00;;
71462;SDS011;59266;52.608;13.260;2022-10-16T03:20:05;6.20;;;2.55;;
71462;SDS011;59266;52.608;13.260;2022-10-16T03:22:32;7.25;;;2.30;;
71462;SDS011;59266;52.608;13.260;2022-10-16T03:24:58;7.10;;;2.17;;
71462;SDS011;59266;52.608;13.260;2022-10-16T03:27:25;4.93;;;1.88;;
71462;SDS011;59266;52.608;13.260;2022-10-16T03:29:52;5.20;;;1.85;;
71462;SDS011;59266;52.608;13.260;2022-10-16T03:32:18;4.97;;;1.92;;
71462;SDS011;59266;52.608;13.260;2022-10-16T03:34:46;6.45;;;2.40;;
71462;SDS011;59266;52.608;13.260;2022-10-16T03:37:13;4.65;;;2.00;;
71462;SDS011;59266;52.608;13.260;2022-10-16T03:39:40;6.72;;;2.10;;
71462;SDS011;59266;52.608;13.260;2022-10-16T03:42:06;6.63;;;2.53;;
71462;SDS011;59266;52.608;13.260;2022-10-16T03:44:33;5.70;;;2.10;;
71462;SDS011;59266;52.608;13.260;2022-10-16T03:47:00;6.53;;;2.22;;
71462;SDS011;59266;52.608;13.260;2022-10-16T03:49:27;5.25;;;2.15;;
71462;SDS011;59266;52.608;13.260;2022-10-16T03:51:53;6.88;;;2.00;;
71462;SDS011;59266;52.608;13.260;2022-10-16T03:54:20;5.80;;;2.30;;
71462;SDS011;59266;52.608;13.260;2022-10-16T03:56:48;5.15;;;2.00;;
71462;SDS011;59266;52.608;13.260;2022-10-16T03:59:14;8.48;;;3.03;;
71462;SDS011;59266;52.608;13.260;2022-10-16T04:01:41;5.00;;;2.35;;
71462;SDS011;59266;52.608;13.260;2022-10-16T04:04:07;5.10;;;2.03;;
71462;SDS011;59266;52.608;13.260;2022-10-16T04:06:34;5.78;;;2.10;;
71462;SDS011;59266;52.608;13.260;2022-10-16T04:09:01;5.97;;;2.28;;
71462;SDS011;59266;52.608;13.260;2022-10-16T04:11:28;6.68;;;2.30;;
71462;SDS011;59266;52.608;13.260;2022-10-16T04:13:54;4.97;;;2.13;;
71462;SDS011;59266;52.608;13.260;2022-10-16T04:16:22;5.22;;;2.10;;
71462;SDS011;59266;52.608;13.260;2022-10-16T04:18:48;5.18;;;2.17;;
71462;SDS011;59266;52.608;13.260;2022-10-16T04:21:15;7.28;;;2.00;;
71462;SDS011;59266;52.608;13.260;2022-10-16T04:23:42;6.13;;;2.00;;
71462;SDS011;59266;52.608;13.260;2022-10-16T04:26:08;6.03;;;2.30;;
71462;SDS011;59266;52.608;13.260;2022-10-16T04:28:36;5.95;;;2.38;;
71462;SDS011;59266;52.608;13.260;2022-10-16T04:31:03;5.57;;;2.30;;
71462;SDS011;59266;52.608;13.260;2022-10-16T04:33:30;5.20;;;2.33;;
71462;SDS011;59266;52.608;13.260;2022-10-16T04:35:58;5.22;;;2.17;;
71462;SDS011;59266;52.608;13.260;2022-10-16T04:38:25;5.10;;;2.10;;
71462;SDS011;59266;52.608;13.260;2022-10-16T04:40:52;6.45;;;2.22;;
71462;SDS011;59266;52.608;13.260;2022-10-16T04:43:19;5.78;;;2.25;;
71462;SDS011;59266;52.608;13.260;2022-10-16T04:45:45;5.18;;;2.40;;
71462;SDS011;59266;52.608;13.260;2022-10-16T04:48:12;5.88;;;2.50;;
71462;SDS011;59266;52.608;13.260;2022-10-16T04:50:38;6.25;;;2.40;;
71462;SDS011;59266;52.608;13.260;2022-10-16T04:53:05;6.15;;;2.50;;
71462;SDS011;59266;52.608;13.260;2022-10-16T04:55:32;5.13;;;2.22;;
71462;SDS011;59266;52.608;13.260;2022-10-16T04:57:59;5.38;;;2.28;;
71462;SDS011;59266;52.608;13.260;2022-10-16T05:00:25;6.32;;;2.40;;
71462;SDS011;59266;52.608;13.260;2022-10-16T05:02:52;7.30;;;2.60;;
71462;SDS011;59266;52.608;13.260;2022-10-16T05:05:19;8.07;;;2.63;;
71462;SDS011;59266;52.608;13.260;2022-10-16T05:07:46;7.38;;;2.83;;
71462;SDS011;59266;52.608;13.260;2022-10-16T05:10:13;5.72;;;2.00;;
71462;SDS011;59266;52.608;13.260;2022-10-16T05:12:40;7.03;;;2.40;;
71462;SDS011;59266;52.608;13.260;2022-10-16T05:15:07;8.35;;;2.40;;
71462;SDS011;59266;52.608;13.260;2022-10-16T05:17:33;6.78;;;2.75;;
71462;SDS011;59266;52.608;13.260;2022-10-16T05:20:00;10.15;;;2.88;;
71462;SDS011;59266;52.608;13.260;2022-10-16T05:22:26;6.15;;;2.50;;
71462;SDS011;59266;52.608;13.260;2022-10-16T05:24:53;6.50;;;2.75;;
71462;SDS011;59266;52.608;13.260;2022-10-16T05:27:19;6.40;;;2.47;;
71462;SDS011;59266;52.608;13.260;2022-10-16T05:29:46;10.80;;;3.17;;
71462;SDS011;59266;52.608;13.260;2022-10-16T05:32:13;8.07;;;2.80;;
71462;SDS011;59266;52.608;13.260;2022-10-16T05:34:41;7.45;;;2.40;;
71462;SDS011;59266;52.608;13.260;2022-10-16T05:37:07;7.93;;;2.90;;
71462;SDS011;59266;52.608;13.260;2022-10-16T05:39:34;6.30;;;2.47;;
71462;SDS011;59266;52.608;13.260;2022-10-16T05:42:02;6.78;;;2.65;;
71462;SDS011;59266;52.608;13.260;2022-10-16T05:44:30;8.65;;;2.90;;
71462;SDS011;59266;52.608;13.260;2022-10-16T05:46:56;6.22;;;2.60;;
71462;SDS011;59266;52.608;13.260;2022-10-16T05:49:23;7.57;;;2.30;;
71462;SDS011;59266;52.608;13.260;2022-10-16T05:51:50;7.25;;;2.65;;
71462;SDS011;59266;52.608;13.260;2022-10-16T05:54:16;6.43;;;2.83;;
71462;SDS011;59266;52.608;13.260;2022-10-16T05:56:43;6.72;;;2.50;;
71462;SDS011;59266;52.608;13.260;2022-10-16T05:59:09;7.03;;;2.53;;
71462;SDS011;59266;52.608;13.260;2022-10-16T06:01:36;6.75;;;2.70;;
71462;SDS011;59266;52.608;13.260;2022-10-16T06:04:02;9.85;;;2.60;;
71462;SDS011;59266;52.608;13.260;2022-10-16T06:06:29;8.88;;;2.63;;
71462;SDS011;59266;52.608;13.260;2022-10-16T06:08:57;8.00;;;2.85;;
71462;SDS011;59266;52.608;13.260;2022-10-16T06:11:28;6.85;;;2.60;;
71462;SDS011;59266;52.608;13.260;2022-10-16T06:13:56;6.22;;;2.50;;
71462;SDS011;59266;52.608;13.260;2022-10-16T06:16:28;5.63;;;2.67;;
71462;SDS011;59266;52.608;13.260;2022-10-16T06:18:55;6.93;;;2.70;;
71462;SDS011;59266;52.608;13.260;2022-10-16T06:21:23;6.68;;;2.45;;
71462;SDS011;59266;52.608;13.260;2022-10-16T06:23:53;6.55;;;2.60;;
71462;SDS011;59266;52.608;13.260;2022-10-16T06:26:22;4.68;;;2.20;;
71462;SDS011;59266;52.608;13.260;2022-10-16T06:28:50;6.55;;;2.40;;
71462;SDS011;59266;52.608;13.260;2022-10-16T06:31:17;5.55;;;2.20;;
71462;SDS011;59266;52.608;13.260;2022-10-16T06:33:44;6.57;;;2.55;;
71462;SDS011;59266;52.608;13.260;2022-10-16T06:36:14;6.78;;;2.22;;
71462;SDS011;59266;52.608;13.260;2022-10-16T06:38:42;7.32;;;2.45;;
71462;SDS011;59266;52.608;13.260;2022-10-16T06:41:09;5.85;;;2.20;;
71462;SDS011;59266;52.608;13.260;2022-10-16T06:43:39;5.60;;;2.30;;
71462;SDS011;59266;52.608;13.260;2022-10-16T06:46:06;9.20;;;2.40;;
71462;SDS011;59266;52.608;13.260;2022-10-16T06:48:35;5.72;;;2.10;;
71462;SDS011;59266;52.608;13.260;2022-10-16T06:51:12;7.28;;;2.40;;
71462;SDS011;59266;52.608;13.260;2022-10-16T06:53:42;5.68;;;2.17;;
71462;SDS011;59266;52.608;13.260;2022-10-16T06:56:27;5.30;;;2.10;;
71462;SDS011;59266;52.608;13.260;2022-10-16T06:58:54;5.78;;;2.10;;
71462;SDS011;59266;52.608;13.260;2022-10-16T07:01:21;6.68;;;1.90;;
71462;SDS011;59266;52.608;13.260;2022-10-16T07:03:49;6.32;;;2.10;;
71462;SDS011;59266;52.608;13.260;2022-10-16T07:06:17;5.47;;;2.28;;
71462;SDS011;59266;52.608;13.260;2022-10-16T07:08:46;8.85;;;2.50;;
71462;SDS011;59266;52.608;13.260;2022-10-16T07:11:14;5.88;;;2.10;;
71462;SDS011;59266;52.608;13.260;2022-10-16T07:13:45;6.25;;;2.00;;
71462;SDS011;59266;52.608;13.260;2022-10-16T07:16:28;5.68;;;1.70;;
71462;SDS011;59266;52.608;13.260;2022-10-16T07:19:00;7.95;;;2.00;;
71462;SDS011;59266;52.608;13.260;2022-10-16T07:21:29;7.47;;;2.95;;
71462;SDS011;59266;52.608;13.260;2022-10-16T07:24:01;4.97;;;2.30;;
71462;SDS011;59266;52.608;13.260;2022-10-16T07:26:30;6.22;;;2.38;;
71462;SDS011;59266;52.608;13.260;2022-10-16T07:28:59;6.43;;;1.95;;
71462;SDS011;59266;52.608;13.260;2022-10-16T07:31:26;5.90;;;2.38;;
71462;SDS011;59266;52.608;13.260;2022-10-16T07:33:53;4.63;;;2.00;;
71462;SDS011;59266;52.608;13.260;2022-10-16T07:36:20;6.97;;;2.10;;
71462;SDS011;59266;52.608;13.260;2022-10-16T07:38:47;5.97;;;2.10;;
71462;SDS011;59266;52.608;13.260;2022-10-16T07:41:15;6.00;;;2.00;;
71462;SDS011;59266;52.608;13.260;2022-10-16T07:43:50;6.70;;;1.70;;
71462;SDS011;59266;52.608;13.260;2022-10-16T07:46:18;4.13;;;1.88;;
71462;SDS011;59266;52.608;13.260;2022-10-16T07:48:46;4.72;;;1.85;;
71462;SDS011;59266;52.608;13.260;2022-10-16T07:51:15;5.38;;;1.88;;
71462;SDS011;59266;52.608;13.260;2022-10-16T07:53:42;4.97;;;1.95;;
71462;SDS011;59266;52.608;13.260;2022-10-16T07:56:09;4.00;;;1.65;;
71462;SDS011;59266;52.608;13.260;2022-10-16T07:58:36;5.00;;;2.00;;
71462;SDS011;59266;52.608;13.260;2022-10-16T08:01:04;4.80;;;2.10;;
71462;SDS011;59266;52.608;13.260;2022-10-16T08:03:32;4.70;;;2.13;;
71462;SDS011;59266;52.608;13.260;2022-10-16T08:05:59;4.32;;;1.70;;
71462;SDS011;59266;52.608;13.260;2022-10-16T08:08:26;4.10;;;1.67;;
71462;SDS011;59266;52.608;13.260;2022-10-16T08:10:53;4.38;;;1.60;;
71462;SDS011;59266;52.608;13.260;2022-10-16T08:13:20;5.05;;;1.70;;
71462;SDS011;59266;52.608;13.260;2022-10-16T08:15:47;6.32;;;1.83;;
71462;SDS011;59266;52.608;13.260;2022-10-16T08:18:14;4.32;;;1.70;;
71462;SDS011;59266;52.608;13.260;2022-10-16T08:20:42;4.93;;;1.70;;
71462;SDS011;59266;52.608;13.260;2022-10-16T08:23:09;4.13;;;1.73;;
71462;SDS011;59266;52.608;13.260;2022-10-16T08:25:40;3.63;;;1.42;;
71462;SDS011;59266;52.608;13.260;2022-10-16T08:28:07;5.82;;;1.80;;
71462;SDS011;59266;52.608;13.260;2022-10-16T08:30:35;6.13;;;1.70;;
71462;SDS011;59266;52.608;13.260;2022-10-16T08:33:02;3.63;;;1.52;;
71462;SDS011;59266;52.608;13.260;2022-10-16T08:35:29;4.13;;;1.73;;
71462;SDS011;59266;52.608;13.260;2022-10-16T08:37:55;5.63;;;1.58;;
71462;SDS011;59266;52.608;13.260;2022-10-16T08:40:24;2.95;;;1.23;;
71462;SDS011;59266;52.608;13.260;2022-10-16T08:43:09;4.38;;;1.48;;
71462;SDS011;59266;52.608;13.260;2022-10-16T08:48:53;4.50;;;1.70;;
71462;SDS011;59266;52.608;13.260;2022-10-16T08:51:23;3.72;;;1.50;;
71462;SDS011;59266;52.608;13.260;2022-10-16T08:53:56;3.25;;;1.42;;
71462;SDS011;59266;52.608;13.260;2022-10-16T08:56:24;4.63;;;1.50;;
71462;SDS011;59266;52.608;13.260;2022-10-16T08:58:52;6.88;;;1.80;;
71462;SDS011;59266;52.608;13.260;2022-10-16T09:01:39;4.82;;;1.80;;
71462;SDS011;59266;52.608;13.260;2022-10-16T09:07:06;4.45;;;1.83;;
71462;SDS011;59266;52.608;13.260;2022-10-16T09:12:18;4.28;;;1.50;;
71462;SDS011;59266;52.608;13.260;2022-10-16T09:15:18;4.95;;;1.60;;
71462;SDS011;59266;52.608;13.260;2022-10-16T09:17:59;7.47;;;1.77;;
71462;SDS011;59266;52.608;13.260;2022-10-16T09:20:44;4.32;;;1.48;;
71462;SDS011;59266;52.608;13.260;2022-10-16T09:23:27;6.43;;;1.48;;
71462;SDS011;59266;52.608;13.260;2022-10-16T09:25:56;4.07;;;1.55;;
71462;SDS011;59266;52.608;13.260;2022-10-16T09:28:24;3.72;;;1.65;;
71462;SDS011;59266;52.608;13.260;2022-10-16T09:30:51;4.63;;;1.80;;
71462;SDS011;59266;52.608;13.260;2022-10-16T09:33:19;4.18;;;1.30;;
71462;SDS011;59266;52.608;13.260;2022-10-16T09:35:50;4.80;;;1.60;;
71462;SDS011;59266;52.608;13.260;2022-10-16T09:38:30;3.35;;;1.20;;
71462;SDS011;59266;52.608;13.260;2022-10-16T09:41:02;3.15;;;1.30;;
71462;SDS011;59266;52.608;13.260;2022-10-16T09:43:48;4.88;;;1.50;;
71462;SDS011;59266;52.608;13.260;2022-10-16T09:48:56;3.78;;;1.75;;
71462;SDS011;59266;52.608;13.260;2022-10-16T09:54:00;3.95;;;1.40;;
71462;SDS011;59266;52.608;13.260;2022-10-16T09:56:32;3.53;;;1.10;;
71462;SDS011;59266;52.608;13.260;2022-10-16T09:59:01;4.82;;;1.40;;
71462;SDS011;59266;52.608;13.260;2022-10-16T10:01:41;4.93;;;1.33;;
71462;SDS011;59266;52.608;13.260;2022-10-16T10:04:11;3.47;;;1.50;;
71462;SDS011;59266;52.608;13.260;2022-10-16T10:06:43;4.00;;;1.50;;
71462;SDS011;59266;52.608;13.260;2022-10-16T10:09:16;3.80;;;1.40;;
71462;SDS011;59266;52.608;13.260;2022-10-16T10:11:50;3.25;;;1.15;;
71462;SDS011;59266;52.608;13.260;2022-10-16T10:16:49;3.70;;;1.30;;
71462;SDS011;59266;52.608;13.260;2022-10-16T10:19:18;4.93;;;1.65;;
71462;SDS011;59266;52.608;13.260;2022-10-16T10:21:47;3.88;;;1.35;;
71462;SDS011;59266;52.608;13.260;2022-10-16T10:24:14;3.78;;;1.20;;
71462;SDS011;59266;52.608;13.260;2022-10-16T10:26:48;2.90;;;1.30;;
71462;SDS011;59266;52.608;13.260;2022-10-16T10:32:27;4.70;;;1.40;;
71462;SDS011;59266;52.608;13.260;2022-10-16T10:35:07;2.22;;;1.00;;
71462;SDS011;59266;52.608;13.260;2022-10-16T10:37:49;2.22;;;1.08;;
71462;SDS011;59266;52.608;13.260;2022-10-16T10:40:34;3.50;;;1.35;;
71462;SDS011;59266;52.608;13.260;2022-10-16T10:43:13;3.67;;;1.20;;
71462;SDS011;59266;52.608;13.260;2022-10-16T10:51:27;3.10;;;1.27;;
71462;SDS011;59266;52.608;13.260;2022-10-16T10:59:40;2.88;;;1.30;;
71462;SDS011;59266;52.608;13.260;2022-10-16T11:02:24;3.83;;;1.52;;
71462;SDS011;59266;52.608;13.260;2022-10-16T11:05:44;3.53;;;1.25;;
71462;SDS011;59266;52.608;13.260;2022-10-16T11:07:48;3.72;;;1.25;;
71462;SDS011;59266;52.608;13.260;2022-10-16T11:10:31;3.70;;;1.10;;
71462;SDS011;59266;52.608;13.260;2022-10-16T11:15:58;3.45;;;1.15;;
71462;SDS011;59266;52.608;13.260;2022-10-16T11:18:29;5.15;;;1.20;;
71462;SDS011;59266;52.608;13.260;2022-10-16T11:21:00;6.53;;;1.40;;
71462;SDS011;59266;52.608;13.260;2022-10-16T11:23:36;2.58;;;1.20;;
71462;SDS011;59266;52.608;13.260;2022-10-16T11:26:11;11.52;;;1.65;;
71462;SDS011;59266;52.608;13.260;2022-10-16T11:28:44;4.30;;;1.25;;
71462;SDS011;59266;52.608;13.260;2022-10-16T11:31:34;3.20;;;1.17;;
71462;SDS011;59266;52.608;13.260;2022-10-16T11:34:24;2.72;;;1.08;;
71462;SDS011;59266;52.608;13.260;2022-10-16T11:39:46;4.40;;;1.40;;
71462;SDS011;59266;52.608;13.260;2022-10-16T11:42:32;5.45;;;1.23;;
71462;SDS011;59266;52.608;13.260;2022-10-16T11:53:03;5.97;;;1.27;;
71462;SDS011;59266;52.608;13.260;2022-10-16T11:55:39;3.45;;;1.20;;
71462;SDS011;59266;52.608;13.260;2022-10-16T11:58:15;2.30;;;0.95;;
71462;SDS011;59266;52.608;13.260;2022-10-16T12:00:47;1.52;;;0.90;;
71462;SDS011;59266;52.608;13.260;2022-10-16T12:03:22;2.80;;;1.20;;
71462;SDS011;59266;52.608;13.260;2022-10-16T12:09:33;2.42;;;1.00;;
71462;SDS011;59266;52.608;13.260;2022-10-16T12:12:00;3.35;;;1.00;;
71462;SDS011;59266;52.608;13.260;2022-10-16T12:17:26;3.28;;;1.10;;
71462;SDS011;59266;52.608;13.260;2022-10-16T12:22:47;3.42;;;1.10;;
71462;SDS011;59266;52.608;13.260;2022-10-16T12:25:20;1.75;;;0.90;;
71462;SDS011;59266;52.608;13.260;2022-10-16T12:28:01;2.95;;;0.98;;
71462;SDS011;59266;52.608;13.260;2022-10-16T12:30:34;2.97;;;0.90;;
71462;SDS011;59266;52.608;13.260;2022-10-16T12:33:17;1.88;;;0.90;;
71462;SDS011;59266;52.608;13.260;2022-10-16T12:35:47;1.60;;;0.90;;
71462;SDS011;59266;52.608;13.260;2022-10-16T12:38:17;5.25;;;1.00;;
71462;SDS011;59266;52.608;13.260;2022-10-16T12:40:46;3.63;;;1.33;;
71462;SDS011;59266;52.608;13.260;2022-10-16T12:46:02;2.25;;;0.98;;
71462;SDS011;59266;52.608;13.260;2022-10-16T12:48:31;4.13;;;1.40;;
71462;SDS011;59266;52.608;13.260;2022-10-16T12:57:12;2.03;;;0.90;;
71462;SDS011;59266;52.608;13.260;2022-10-16T12:59:54;3.83;;;1.15;;
71462;SDS011;59266;52.608;13.260;2022-10-16T13:02:37;3.03;;;0.90;;
71462;SDS011;59266;52.608;13.260;2022-10-16T13:07:40;2.97;;;1.00;;
71462;SDS011;59266;52.608;13.260;2022-10-16T13:10:17;3.33;;;1.17;;
71462;SDS011;59266;52.608;13.260;2022-10-16T13:13:09;4.68;;;1.50;;
71462;SDS011;59266;52.608;13.260;2022-10-16T13:16:04;3.22;;;0.90;;
71462;SDS011;59266;52.608;13.260;2022-10-16T13:19:00;1.98;;;0.93;;
71462;SDS011;59266;52.608;13.260;2022-10-16T13:24:46;4.10;;;1.10;;
71462;SDS011;59266;52.608;13.260;2022-10-16T13:30:02;3.50;;;0.90;;
71462;SDS011;59266;52.608;13.260;2022-10-16T13:32:50;1.35;;;0.90;;
71462;SDS011;59266;52.608;13.260;2022-10-16T13:35:25;4.43;;;0.98;;
71462;SDS011;59266;52.608;13.260;2022-10-16T13:38:04;3.78;;;1.00;;
71462;SDS011;59266;52.608;13.260;2022-10-16T13:43:03;1.42;;;0.90;;
71462;SDS011;59266;52.608;13.260;2022-10-16T13:45:29;3.83;;;1.13;;
71462;SDS011;59266;52.608;13.260;2022-10-16T13:48:03;1.77;;;1.00;;
71462;SDS011;59266;52.608;13.260;2022-10-16T13:50:30;1.88;;;0.80;;
71462;SDS011;59266;52.608;13.260;2022-10-16T13:53:03;0.73;;;0.65;;
71462;SDS011;59266;52.608;13.260;2022-10-16T13:55:33;2.00;;;0.60;;
71462;SDS011;59266;52.608;13.260;2022-10-16T13:58:12;3.22;;;0.80;;
71462;SDS011;59266;52.608;13.260;2022-10-16T14:00:40;4.28;;;0.82;;
71462;SDS011;59266;52.608;13.260;2022-10-16T14:03:18;2.65;;;0.68;;
71462;SDS011;59266;52.608;13.260;2022-10-16T14:05:56;1.30;;;0.77;;
71462;SDS011;59266;52.608;13.260;2022-10-16T14:08:27;4.25;;;1.00;;
71462;SDS011;59266;52.608;13.260;2022-10-16T14:10:55;0.80;;;0.70;;
71462;SDS011;59266;52.608;13.260;2022-10-16T14:13:36;4.03;;;1.20;;
71462;SDS011;59266;52.608;13.260;2022-10-16T14:16:07;2.13;;;1.10;;
71462;SDS011;59266;52.608;13.260;2022-10-16T14:18:35;1.67;;;0.80;;
71462;SDS011;59266;52.608;13.260;2022-10-16T14:21:04;3.17;;;1.10;;
71462;SDS011;59266;52.608;13.260;2022-10-16T14:23:39;3.38;;;0.90;;
71462;SDS011;59266;52.608;13.260;2022-10-16T14:28:36;2.47;;;1.00;;
71462;SDS011;59266;52.608;13.260;2022-10-16T14:31:17;3.58;;;0.80;;
71462;SDS011;59266;52.608;13.260;2022-10-16T14:33:52;3.42;;;0.90;;
71462;SDS011;59266;52.608;13.260;2022-10-16T14:36:18;3.13;;;0.80;;
71462;SDS011;59266;52.608;13.260;2022-10-16T14:41:44;2.40;;;0.82;;
71462;SDS011;59266;52.608;13.260;2022-10-16T14:44:13;2.00;;;0.80;;
71462;SDS011;59266;52.608;13.260;2022-10-16T14:46:41;1.90;;;0.90;;
71462;SDS011;59266;52.608;13.260;2022-10-16T14:51:36;3.78;;;1.20;;
71462;SDS011;59266;52.608;13.260;2022-10-16T14:54:14;1.80;;;0.90;;
71462;SDS011;59266;52.608;13.260;2022-10-16T14:59:13;3.15;;;0.90;;
71462;SDS011;59266;52.608;13.260;2022-10-16T15:01:43;3.72;;;1.10;;
71462;SDS011;59266;52.608;13.260;2022-10-16T15:04:10;2.08;;;0.85;;
71462;SDS011;59266;52.608;13.260;2022-10-16T15:06:38;2.50;;;1.00;;
71462;SDS011;59266;52.608;13.260;2022-10-16T15:09:05;2.63;;;1.00;;
71462;SDS011;59266;52.608;13.260;2022-10-16T15:11:31;1.85;;;1.05;;
71462;SDS011;59266;52.608;13.260;2022-10-16T15:13:58;2.10;;;0.93;;
71462;SDS011;59266;52.608;13.260;2022-10-16T15:16:25;2.58;;;1.10;;
71462;SDS011;59266;52.608;13.260;2022-10-16T15:18:51;3.08;;;0.80;;
71462;SDS011;59266;52.608;13.260;2022-10-16T15:21:40;1.58;;;0.90;;
71462;SDS011;59266;52.608;13.260;2022-10-16T15:24:08;1.50;;;0.90;;
71462;SDS011;59266;52.608;13.260;2022-10-16T15:26:40;1.45;;;0.70;;
71462;SDS011;59266;52.608;13.260;2022-10-16T15:29:07;2.63;;;1.20;;
71462;SDS011;59266;52.608;13.260;2022-10-16T15:31:34;5.03;;;1.10;;
71462;SDS011;59266;52.608;13.260;2022-10-16T15:34:00;3.60;;;1.20;;
71462;SDS011;59266;52.608;13.260;2022-10-16T15:36:33;5.03;;;1.70;;
71462;SDS011;59266;52.608;13.260;2022-10-16T15:39:03;4.90;;;1.48;;
71462;SDS011;59266;52.608;13.260;2022-10-16T15:41:30;2.08;;;0.90;;
71462;SDS011;59266;52.608;13.260;2022-10-16T15:43:57;4.07;;;1.20;;
71462;SDS011;59266;52.608;13.260;2022-10-16T15:46:23;1.77;;;0.90;;
71462;SDS011;59266;52.608;13.260;2022-10-16T15:48:50;3.22;;;1.23;;
71462;SDS011;59266;52.608;13.260;2022-10-16T15:51:21;3.25;;;1.00;;
71462;SDS011;59266;52.608;13.260;2022-10-16T15:53:47;7.03;;;2.95;;
71462;SDS011;59266;52.608;13.260;2022-10-16T15:56:14;5.80;;;2.20;;
71462;SDS011;59266;52.608;13.260;2022-10-16T15:58:41;4.85;;;1.83;;
71462;SDS011;59266;52.608;13.260;2022-10-16T16:01:07;6.75;;;2.30;;
71462;SDS011;59266;52.608;13.260;2022-10-16T16:03:36;4.03;;;1.90;;
71462;SDS011;59266;52.608;13.260;2022-10-16T16:06:06;2.20;;;1.02;;
71462;SDS011;59266;52.608;13.260;2022-10-16T16:08:35;2.60;;;1.20;;
71462;SDS011;59266;52.608;13.260;2022-10-16T16:11:03;4.03;;;1.00;;
71462;SDS011;59266;52.608;13.260;2022-10-16T16:13:31;3.25;;;0.90;;
71462;SDS011;59266;52.608;13.260;2022-10-16T16:15:58;4.60;;;1.05;;
71462;SDS011;59266;52.608;13.260;2022-10-16T16:18:24;2.53;;;1.08;;
71462;SDS011;59266;52.608;13.260;2022-10-16T16:20:51;4.00;;;0.90;;
71462;SDS011;59266;52.608;13.260;2022-10-16T16:23:18;5.60;;;1.02;;
71462;SDS011;59266;52.608;13.260;2022-10-16T16:25:53;4.90;;;1.02;;
71462;SDS011;59266;52.608;13.260;2022-10-16T16:28:37;3.08;;;1.25;;
71462;SDS011;59266;52.608;13.260;2022-10-16T16:31:04;2.20;;;0.95;;
71462;SDS011;59266;52.608;13.260;2022-10-16T16:33:31;7.10;;;1.20;;
71462;SDS011;59266;52.608;13.260;2022-10-16T16:35:58;4.53;;;1.52;;